Rossland, Canada
Current Conditions -  °F | °C
As of 5:00 PM on Friday 19 Dec 2014 (Local Time) from CYCG Reporting Station
Broken Clouds Broken Clouds  
Wind Chill: 34°   Ceiling: 2600
Heat Index: 37°   Visibility: 10mi
Dew Point: 37°   Wind: 5mph
Humidity: 100%   Direction: 130°SE
Pressure: 29.93"   Gusts: NA
Location:  49.08°N, 117.8°W
Report Text: CYCG 200100Z 13004KT 10SM FEW004 BKN026 BKN075 03/03 A2993 RMK SF1SC5AC1 LAST OBS/NEXT 201400 UTC SLP151
Loading
Personal Weather Stations






























Interactive Weather Map New forecast layout! Learn more

10-Day Weather Forecast

Advertisements
Track Severe Weather on mobile